Terminal Aerodrome Forecast
Issued by NWS Billings, MT

Home | Current Version | Previous Version | Text Only | Print | Product List | Glossary Off
Versions: 1 2 3 4 5 6 7 8 9 10 11 12 13 14 15 16 17 18 19 20 21 22 23 24 25 26 27 28 29 30 31 32 33 34 35 36 37 38

000
FTUS45 KBYZ 290104 AAA
TAFMLS
TAF AMD
KMLS 290104Z 2901/2924 05015G23KT P6SM VCSH FEW060 BKN100
     FM290400 24009KT P6SM FEW080 BKN120
     FM291500 31015G25KT P6SM FEW090 SCT200=

USA.gov is the U.S. government's official web portal to all federal, state and local government web resources and services.